PWSweather.com
Personal Weather Stations
Station Observations
TENMILE2
Watts Bar Lake, Ten Mile, TN 37880

Watts Bar LakeTen Mile, TN 37880

Lat: 35.686, Lon: -84.7068

Elevation: 767

Station Type: Davis VP2

http://www.wattsbarweather.org

Latest ConditionsUpdated 4:10:42 AM EST Friday, Feb 22, 2019
Currently Today's Max Today's Min Today's Average
Temperature 44.9°F7.2°C 45.7°F7.6°C 44.9°F7.2°C 45.2°F7.3°C
Dew Point 43.5°F6.4°C 43.9°F6.6°C 43.1°F6.2°C 43.4°F6.3°C
Winds 3.2 mph N5.1 kmh N 3.2 mph -5.1 kmh - - 1.1 mph 1.8 kmh
Wind Gusts 6.3 mph10.1 kmh 8.8 mph14.2 kmh - -
Humidity 95% 95% 91% 94%
Pressure 30.23 in1023.7 mb 30.28 in1025.4 mb 30.23 in1023.7 mb -
Precipitation - 0.11 in2.8 mm - -
Hour Temp Dew Point Humidity Winds Wind Gusts Pressure Precip Precip Rate Daily Precip Total
04:10 AM 44.9°F7.2°C 43.5°F6.4°C 95% 3.2 mph N5.1 kmh N 6.3 mph10.1 kmh 30.23 in1023.7 mb 0.05 in1.3 mm 0.00 in0.0 mm 0.11 in2.8 mm
04:05 AM 44.9°F7.2°C 43.5°F6.4°C 95% 1.9 mph N3.1 kmh N 4.0 mph6.4 kmh 30.23 in1023.7 mb 0.06 in1.5 mm 0.00 in0.0 mm 0.11 in2.8 mm
04:00 AM 44.9°F7.2°C 43.5°F6.4°C 95% 1.3 mph NE2.1 kmh NE 5.0 mph8.0 kmh 30.24 in1024.0 mb 0.06 in1.5 mm 0.00 in0.0 mm 0.11 in2.8 mm
03:55 AM 45.0°F7.2°C 43.6°F6.4°C 95% 2.2 mph NW3.5 kmh NW 5.0 mph8.0 kmh 30.23 in1023.7 mb 0.06 in1.5 mm 0.00 in0.0 mm 0.11 in2.8 mm
03:50 AM 45.0°F7.2°C 43.6°F6.4°C 95% 1.3 mph ENE2.1 kmh ENE 7.5 mph12.1 kmh 30.24 in1024.0 mb 0.06 in1.5 mm 0.00 in0.0 mm 0.11 in2.8 mm
03:45 AM 45.0°F7.2°C 43.6°F6.4°C 95% Calm Calm 7.5 mph12.1 kmh 30.24 in1024.0 mb 0.06 in1.5 mm 0.12 in3.0 mm 0.11 in2.8 mm
03:40 AM 45.0°F7.2°C 43.6°F6.4°C 95% 2.0 mph N3.2 kmh N 2.5 mph4.0 kmh 30.23 in1023.7 mb 0.05 in1.3 mm 0.12 in3.0 mm 0.09 in2.3 mm
03:35 AM 45.0°F7.2°C 43.6°F6.4°C 95% 1.3 mph NE2.1 kmh NE 1.3 mph2.1 kmh 30.24 in1024.0 mb 0.04 in1.0 mm 0.00 in0.0 mm 0.08 in2.0 mm
03:30 AM 45.0°F7.2°C 43.6°F6.4°C 95% Calm Calm 1.3 mph2.1 kmh 30.24 in1024.0 mb 0.05 in1.3 mm 0.12 in3.0 mm 0.08 in2.0 mm
03:25 AM 45.0°F7.2°C 43.6°F6.4°C 95% Calm Calm 1.3 mph2.1 kmh 30.24 in1024.0 mb 0.04 in1.0 mm 0.00 in0.0 mm 0.07 in1.8 mm
03:20 AM 45.0°F7.2°C 43.3°F6.3°C 94% 1.3 mph NE2.1 kmh NE 1.3 mph2.1 kmh 30.24 in1024.0 mb 0.04 in1.0 mm 0.12 in3.0 mm 0.07 in1.8 mm
03:15 AM 45.1°F7.3°C 43.4°F6.3°C 94% Calm Calm 1.3 mph2.1 kmh 30.24 in1024.0 mb 0.03 in0.8 mm 0.00 in0.0 mm 0.06 in1.5 mm
03:10 AM 45.1°F7.3°C 43.4°F6.3°C 94% Calm Calm 1.0 mph1.6 kmh 30.25 in1024.4 mb 0.03 in0.8 mm 0.12 in3.0 mm 0.05 in1.3 mm
03:05 AM 45.2°F7.3°C 43.5°F6.4°C 94% Calm Calm 2.0 mph3.2 kmh 30.24 in1024.0 mb 0.02 in0.5 mm 0.00 in0.0 mm 0.04 in1.0 mm
03:00 AM 45.2°F7.3°C 43.3°F6.3°C 93% 1.3 mph NE2.1 kmh NE 2.0 mph3.2 kmh 30.24 in1024.0 mb 0.02 in0.5 mm 0.00 in0.0 mm 0.04 in1.0 mm
02:55 AM 45.2°F7.3°C 43.3°F6.3°C 93% 1.3 mph N2.1 kmh N 2.5 mph4.0 kmh 30.24 in1024.0 mb 0.02 in0.5 mm 0.00 in0.0 mm 0.04 in1.0 mm
02:50 AM 45.2°F7.3°C 43.3°F6.3°C 93% Calm Calm 2.5 mph4.0 kmh 30.24 in1024.0 mb 0.03 in0.8 mm 0.00 in0.0 mm 0.04 in1.0 mm
02:45 AM 45.2°F7.3°C 43.3°F6.3°C 93% 1.3 mph NW2.1 kmh NW 2.0 mph3.2 kmh 30.24 in1024.0 mb 0.03 in0.8 mm 0.00 in0.0 mm 0.04 in1.0 mm
02:40 AM 45.3°F7.4°C 43.4°F6.3°C 93% 1.3 mph ENE2.1 kmh ENE 2.5 mph4.0 kmh 30.24 in1024.0 mb 0.03 in0.8 mm 0.00 in0.0 mm 0.04 in1.0 mm
02:35 AM 45.3°F7.4°C 43.4°F6.3°C 93% 1.5 mph ENE2.4 kmh ENE 3.0 mph4.8 kmh 30.24 in1024.0 mb 0.03 in0.8 mm 0.00 in0.0 mm 0.04 in1.0 mm
02:30 AM 45.2°F7.3°C 43.3°F6.3°C 93% 1.3 mph ENE2.1 kmh ENE 3.0 mph4.8 kmh 30.24 in1024.0 mb 0.03 in0.8 mm 0.00 in0.0 mm 0.03 in0.8 mm
02:25 AM 45.1°F7.3°C 43.2°F6.2°C 93% 1.3 mph NE2.1 kmh NE 3.8 mph6.1 kmh 30.24 in1024.0 mb 0.03 in0.8 mm 0.00 in0.0 mm 0.03 in0.8 mm
02:20 AM 45.1°F7.3°C 43.4°F6.3°C 94% 2.1 mph NE3.4 kmh NE 3.8 mph6.1 kmh 30.24 in1024.0 mb 0.03 in0.8 mm 0.00 in0.0 mm 0.03 in0.8 mm
02:15 AM 45.3°F7.4°C 43.4°F6.3°C 93% 1.5 mph ENE2.4 kmh ENE 3.0 mph4.8 kmh 30.25 in1024.4 mb 0.03 in0.8 mm 0.12 in3.0 mm 0.03 in0.8 mm
02:10 AM 45.5°F7.5°C 43.3°F6.3°C 92% 1.3 mph NE2.1 kmh NE 5.0 mph8.0 kmh 30.25 in1024.4 mb 0.02 in0.5 mm 0.00 in0.0 mm 0.02 in0.5 mm
02:05 AM 45.6°F7.6°C 43.1°F6.2°C 91% Calm Calm 8.0 mph12.9 kmh 30.24 in1024.0 mb 0.02 in0.5 mm 0.00 in0.0 mm 0.02 in0.5 mm
02:00 AM 45.6°F7.6°C 43.1°F6.2°C 91% 1.9 mph NE3.1 kmh NE 8.0 mph12.9 kmh 30.24 in1024.0 mb 0.02 in0.5 mm 0.00 in0.0 mm 0.02 in0.5 mm
01:55 AM 45.6°F7.6°C 43.1°F6.2°C 91% 2.4 mph N3.9 kmh N 8.8 mph14.2 kmh 30.24 in1024.0 mb 0.02 in0.5 mm 0.12 in3.0 mm 0.02 in0.5 mm
01:50 AM 45.7°F7.6°C 43.2°F6.2°C 91% 2.4 mph N3.9 kmh N 8.8 mph14.2 kmh 30.24 in1024.0 mb 0.01 in0.3 mm 0.00 in0.0 mm 0.01 in0.3 mm
01:45 AM 45.6°F7.6°C 43.4°F6.3°C 92% 1.7 mph NNE2.7 kmh NNE 6.3 mph10.1 kmh 30.24 in1024.0 mb 0.01 in0.3 mm 0.00 in0.0 mm 0.01 in0.3 mm
01:40 AM 45.5°F7.5°C 43.3°F6.3°C 92% 2.3 mph NNW3.7 kmh NNW 3.8 mph6.1 kmh 30.23 in1023.7 mb 0.01 in0.3 mm 0.12 in3.0 mm 0.01 in0.3 mm
01:35 AM 45.3°F7.4°C 43.4°F6.3°C 93% 1.7 mph NE2.7 kmh NE 3.8 mph6.1 kmh 30.24 in1024.0 mb 0.00 in0.0 mm 0.00 in0.0 mm 0.02 in0.5 mm
01:30 AM 45.2°F7.3°C 43.3°F6.3°C 93% 1.4 mph NE2.3 kmh NE 2.5 mph4.0 kmh 30.25 in1024.4 mb 0.00 in0.0 mm 0.00 in0.0 mm 0.02 in0.5 mm
01:25 AM 45.1°F7.3°C 43.4°F6.3°C 94% 1.3 mph NNE2.1 kmh NNE 2.5 mph4.0 kmh 30.25 in1024.4 mb 0.00 in0.0 mm 0.00 in0.0 mm 0.02 in0.5 mm
01:20 AM 44.9°F7.2°C 43.2°F6.2°C 94% 1.3 mph ENE2.1 kmh ENE 2.5 mph4.0 kmh 30.25 in1024.4 mb 0.00 in0.0 mm 0.00 in0.0 mm 0.02 in0.5 mm
01:15 AM 44.9°F7.2°C 43.2°F6.2°C 94% 1.3 mph E2.1 kmh E 2.5 mph4.0 kmh 30.26 in1024.7 mb 0.00 in0.0 mm 0.00 in0.0 mm 0.02 in0.5 mm
01:10 AM 45.0°F7.2°C 43.3°F6.3°C 94% Calm Calm 1.0 mph1.6 kmh 30.27 in1025.1 mb 0.00 in0.0 mm 0.00 in0.0 mm 0.02 in0.5 mm
01:05 AM 45.0°F7.2°C 43.3°F6.3°C 94% Calm Calm 2.0 mph3.2 kmh 30.27 in1025.1 mb 0.00 in0.0 mm 0.00 in0.0 mm 0.02 in0.5 mm
01:00 AM 45.1°F7.3°C 43.4°F6.3°C 94% 1.3 mph SSW2.1 kmh SSW 2.0 mph3.2 kmh 30.28 in1025.4 mb 0.00 in0.0 mm 0.00 in0.0 mm 0.02 in0.5 mm
12:55 AM 45.2°F7.3°C 43.5°F6.4°C 94% 1.3 mph SW2.1 kmh SW 2.5 mph4.0 kmh 30.28 in1025.4 mb 0.00 in0.0 mm 0.00 in0.0 mm 0.02 in0.5 mm
12:49 AM 45.1°F7.3°C 43.2°F6.2°C 93% 1.4 mph NW2.3 kmh NW 2.5 mph4.0 kmh 30.28 in1025.4 mb 0.00 in0.0 mm 0.00 in0.0 mm 0.02 in0.5 mm
12:44 AM 45.1°F7.3°C 43.2°F6.2°C 93% 1.3 mph NW2.1 kmh NW 1.3 mph2.1 kmh 30.28 in1025.4 mb 0.00 in0.0 mm 0.00 in0.0 mm 0.02 in0.5 mm
12:39 AM 45.1°F7.3°C 43.2°F6.2°C 93% Calm Calm 1.3 mph2.1 kmh 30.27 in1025.1 mb 0.01 in0.3 mm 0.00 in0.0 mm 0.02 in0.5 mm
12:34 AM 45.2°F7.3°C 43.3°F6.3°C 93% 1.3 mph N2.1 kmh N 1.3 mph2.1 kmh 30.27 in1025.1 mb 0.01 in0.3 mm 0.00 in0.0 mm 0.02 in0.5 mm
12:29 AM 45.3°F7.4°C 43.6°F6.4°C 94% Calm Calm 1.3 mph2.1 kmh 30.27 in1025.1 mb 0.01 in0.3 mm 0.00 in0.0 mm 0.02 in0.5 mm
12:24 AM 45.3°F7.4°C 43.4°F6.3°C 93% 1.3 mph W2.1 kmh W 1.3 mph2.1 kmh 30.28 in1025.4 mb 0.01 in0.3 mm 0.00 in0.0 mm 0.02 in0.5 mm
12:19 AM 45.4°F7.4°C 43.7°F6.5°C 94% Calm Calm 2.0 mph3.2 kmh 30.28 in1025.4 mb 0.02 in0.5 mm 0.00 in0.0 mm 0.02 in0.5 mm
12:14 AM 45.5°F7.5°C 43.8°F6.6°C 94% Calm Calm 2.0 mph3.2 kmh 30.27 in1025.1 mb 0.02 in0.5 mm 0.00 in0.0 mm 0.02 in0.5 mm
12:09 AM 45.6°F7.6°C 43.9°F6.6°C 94% Calm Calm 3.0 mph4.8 kmh 30.27 in1025.1 mb 0.02 in0.5 mm 0.00 in0.0 mm 0.02 in0.5 mm
12:04 AM 45.6°F7.6°C 43.6°F6.4°C 93% 1.3 mph WSW2.1 kmh WSW 3.0 mph4.8 kmh 30.27 in1025.1 mb 0.02 in0.5 mm 0.30 in7.6 mm 0.02 in0.5 mm